Salgado Filho Airport
SBPA : now visible

Airfield :











YOU CAN JOIN US ON...

 
LOGIN :

Register | Disclaimer

   EN    FR    IT 

 









Legend :    VFR   Marginal VFR   IFR   Intensive IFR   Very Intensive IFR
Visi :
Ceiling :
>= 8 km
>= 3000ft
5 to 8 km
1000 to 3000 ft
1500m to 5 km
500 to 1000 ft
800 to 1500m
200 to 500 ft
< 800m
< 200 ft
Symbols :   Thunderstorms  Fog  Heavy snow  Heavy precipitations  Wind > 20 kt






- Airport Elevation : 11 ft
- IATA code : POA


SBPA - Salgado Filho

CURRENT METAR :
  • 041700Z 31006KT 220V360 9999 SCT035 25/12 Q1013

EXPIRED METARs :
  • 041600Z 28006KT 220V320 9999 SCT030 24/14 Q1014
  • 041500Z 29008KT 230V340 9999 BKN030 23/14 Q1015

TAF TAF SBPA
Valid from the 04 at 18:00 until the 05 at 18:00 UTC


041500Z 0418/0518 25008KT 9999 SCT035 TN15/0508Z TX27/0518Z
BECMG 0421/0423 21007KT CAVOK
BECMG 0500/0502 10007KT
BECMG 0505/0507 07007KT
PROB30 0508/0511 5000 BR NSC
BECMG 0509/0511 30007KT 9999 SCT030
BECMG 0515/0517 21007KT SCT040 RMK PEJ



MET'MAP, your aeronautical weather chart ! - Copyright ORBIFLY December 2007 - Disclaimer

ORBIFLY MET'MAP TEAM :

Programming & Development : Alexandra Zaïnal
Concept & original design : Baudouin d'Aumeries
Assistance for programming : Marc-Olivier Méhu
Technical & hardware support : Manuel Goepfert

Contact : metmap@orbifly.com




SOURCES & CREDITS :

   NOAA       Earth
Advisory